Richardson Corners, Massachusetts
Current Conditions -  °F | °C
As of 9:54 PM on Friday 21 Nov 2014 (Local Time) from KORH Reporting Station
Clear Clear  
Wind Chill: 10°   Ceiling: Unl
Heat Index: 22°   Visibility: 10mi
Dew Point:   Wind: 13mph
Humidity: 51%   Direction: 280°W
Pressure: 30.35"   Gusts: NA
Location:  42.1476°N, 71.9982°W
Report Text: KORH 220254Z AUTO 28011KT 10SM CLR M06/M14 A3035 RMK AO2 SLP295 T10561144 52014
Loading
Personal Weather Stations






























Interactive Weather Map New forecast layout! Learn more

10-Day Weather Forecast

Advertisements
Track Severe Weather on mobile